Metar Cercanos

 

LEPA - Palma De Mallorc, Spain
Distance from station: ONO 38km
Actualización: Mon, 12-Apr-2021 9:30am CEST
Muy nuboso
Muy nuboso
 Viento del ENE
Viento: ENE 31 km/h
Temperatura: 13°C
Rocío: 8°C
Humedad: 72%
Barómetro: 1022 hPa
Clouds: Muy nuboso
Visibility: 10 km
Cloud details: Few Clouds 366 m
Muy nuboso 1219 m
2021/04/12 07:30 LEPA 120730Z 06017KT 9999 FEW012 BKN040 13/08 Q1022 NOSIG
LEMH - Mahon/Menorca Is, Spain
Distance from station: ENE 105km
Actualización: Mon, 12-Apr-2021 9:30am CEST
Few Clouds
Few Clouds
 Viento del NNE
Viento: NNE 39 km/h
Temperatura: 12°C
Rocío: 7°C
Humedad: 72%
Barómetro: 1021 hPa
Clouds: Few Clouds
Visibility: 10 km
Cloud details: Few Clouds 762 m
2021/04/12 07:30 LEMH 120730Z 02021KT 9999 FEW025 12/07 Q1021
 
LEIB - Ibiza/Es Codola, Spain
Distance from station: OSO 165km
Actualización: Mon, 12-Apr-2021 9:30am CEST
Parcialmente nuboso
Parcialmente nuboso
 Viento del NE
Viento: NE 20 km/h
Temperatura: 15°C
Rocío: 11°C
Humedad: 77%
Barómetro: 1022 hPa
Clouds: Parcialmente nuboso
Visibility: 10 km
Cloud details: Parcialmente nuboso 610 m
2021/04/12 07:30 LEIB 120730Z 04011KT 9999 SCT020 15/11 Q1022 NOSIG
LEBL - Barcelona Airpor, Spain
Distance from station: NNO 225km
Actualización: Mon, 12-Apr-2021 9:30am CEST
Light drizzle, Muy nuboso
Light drizzle, Muy nuboso
 Viento del NNO
Viento: NNO 6 km/h
Temperatura: 9°C
Rocío: 8°C
Humedad: 94%
Barómetro: 1023 hPa
Resumen: Light Drizzle
Clouds: Muy nuboso
Visibility: 10 km
Cloud details: Few Clouds 152 m
Parcialmente nuboso 305 m
Muy nuboso 457 m
2021/04/12 07:30 LEBL 120730Z 33003KT 9999 -DZ FEW005 SCT010 BKN015 09/08 Q1023 NOSIG
 
LEVC - Valencia (civ/Mi, Spain
Distance from station: NO 188km
Actualización: Mon, 12-Apr-2021 9:30am CEST
Muy nuboso
Muy nuboso
 Viento del N
Viento: N 6 km/h
Temperatura: 13°C
Rocío: 5°C
Humedad: 59%
Barómetro: 1023 hPa
Clouds: Muy nuboso
Visibility: 10 km
Cloud details: Few Clouds 457 m
Muy nuboso 1219 m
2021/04/12 07:30 LEVC 120730Z 36003KT 320V030 9999 FEW015 BKN040 13/05 Q1023 NOSIG
LEGE - Gerona/Costa Bra, Spain
Distance from station: N 276km
Actualización: Mon, 12-Apr-2021 9:30am CEST
Muy nuboso
Muy nuboso
 Viento del calm
Viento: Calma
Temperatura: 8°C
Rocío: 5°C
Humedad: 82%
Barómetro: 1022 hPa
Clouds: Muy nuboso
Visibility: 10 km
Cloud details: Few Clouds 183 m
Muy nuboso 762 m
2021/04/12 07:30 LEGE 120730Z 00000KT 9999 FEW006 BKN025 08/05 Q1022
 
LEAL - Alicante/El Alte, Spain
Distance from station: OSO 344km
Actualización: Mon, 12-Apr-2021 9:30am CEST
Muy nuboso
Muy nuboso
 Viento del varies
Viento: varies 2 km/h
Temperatura: 14°C
Rocío: 12°C
Humedad: 88%
Barómetro: 1022 hPa
Clouds: Muy nuboso
Visibility: 10 km
Cloud details: Muy nuboso 1280 m
Muy nuboso 1554 m
2021/04/12 07:30 LEAL 120730Z VRB01KT 9999 BKN042 BKN051 14/12 Q1022 NOSIG
LEAM - Almeria Airport, Spain
Distance from station: SSO 56km
Actualización: Mon, 12-Apr-2021 9:30am CEST
Few Clouds
Few Clouds
 Viento del E
Viento: E 31 km/h
Temperatura: 17°C
Rocío: 13°C
Humedad: 77%
Barómetro: 1021 hPa
Clouds: Few Clouds
Visibility: 10 km
Cloud details: Few Clouds 457 m
2021/04/12 07:30 LEAM 120730Z 08017KT 9999 FEW015 17/13 Q1021
 
LEZG - Zaragoza (mil/Ci, Spain
Distance from station: NO 431km
Actualización: Mon, 12-Apr-2021 9:30am CEST
Despejado
Despejado
 Viento del ONO
Viento: ONO 33 km/h
Temperatura: 8°C
Sensación frio: 3°C
Rocío: 1°C
Humedad: 62%
Barómetro: 1026 hPa
Resumen: Despejado
Visibility: greater than 10 km
2021/04/12 07:30 LEZG 120730Z 29018KT CAVOK 08/01 Q1026
LEMD - Madrid/Barajas, Spain
Distance from station: ONO 234km
Actualización: Mon, 12-Apr-2021 9:30am CEST
Despejado
Despejado
 Viento del NE
Viento: NE 15 km/h
Temperatura: 6°C
Sensación frio: 3°C
Rocío: 0°C
Humedad: 66%
Barómetro: 1025 hPa
Resumen: Despejado
Visibility: greater than 10 km
2021/04/12 07:30 LEMD 120730Z 05008KT 350V100 CAVOK 06/M00 Q1025 NOSIG
 
LEGR - Granada Airport, Spain
Distance from station: OSO 62km
Actualización: Mon, 12-Apr-2021 9:30am CEST
Few Clouds
Few Clouds
 Viento del calm
Viento: Calma
Temperatura: 10°C
Rocío: 9°C
Humedad: 94%
Barómetro: 1021 hPa
Clouds: Few Clouds
Visibility: 10 km
Cloud details: Few Clouds 2438 m
2021/04/12 07:30 LEGR 120730Z 00000KT 9999 FEW080 10/09 Q1021
LEMG - Malaga (civ/Mil), Spain
Distance from station: OSO 227km
Actualización: Mon, 12-Apr-2021 9:30am CEST
Despejado
Despejado
 Viento del NO
Viento: NO 11 km/h
Temperatura: 16°C
Rocío: 11°C
Humedad: 72%
Barómetro: 1019 hPa
Resumen: Despejado
Visibility: greater than 10 km
2021/04/12 07:30 LEMG 120730Z 31006KT CAVOK 16/11 Q1019 NOSIG
 
LEZL - Sevilla (civ/Mil, Spain
Distance from station: S 318km
Actualización: Mon, 12-Apr-2021 9:30am CEST
Muy nuboso
Muy nuboso
 Viento del E
Viento: E 11 km/h
Temperatura: 14°C
Rocío: 13°C
Humedad: 94%
Barómetro: 1020 hPa
Clouds: Muy nuboso
Visibility: 10 km
Cloud details: Muy nuboso 183 m
2021/04/12 07:30 LEZL 120730Z 10006KT 070V140 9999 BKN006 14/13 Q1020 NOSIG
LEVT - Vitoria, Spain
Distance from station: NO 226km
Actualización: Mon, 12-Apr-2021 9:30am CEST
Muy nuboso
Muy nuboso
 Viento del varies
Viento: varies 4 km/h
Temperatura: 3°C
Rocío: 2°C
Humedad: 93%
Barómetro: 1028 hPa
Clouds: Muy nuboso
Visibility: 10 km
Cloud details: Few Clouds 853 m
Muy nuboso 1402 m
2021/04/12 07:30 LEVT 120730Z VRB02KT 9999 FEW028 BKN046 03/02 Q1028
 
LEBB - Bilbao/Sondica, Spain
Distance from station: NNO 235km
Actualización: Mon, 12-Apr-2021 9:30am CEST
Lluvia débil, Muy nuboso
Lluvia débil, Muy nuboso
 Viento del SO
Viento: SO 6 km/h
Temperatura: 6°C
Rocío: 5°C
Humedad: 93%
Barómetro: 1029 hPa
Resumen: Lluvia débil
Clouds: Muy nuboso
Visibility: 8 km
Cloud details: Parcialmente nuboso 914 m
Muy nuboso 1524 m
2021/04/12 07:30 LEBB 120730Z 22003KT 180V280 8000 -RA SCT030 BKN050 06/05 Q1029 NOSIG
LESO - San Sebastian/Fu, Spain
Distance from station: N 231km
Actualización: Mon, 12-Apr-2021 9:30am CEST
Few Clouds
Few Clouds
 Viento del E
Viento: E 6 km/h
Temperatura: 9°C
Rocío: 4°C
Humedad: 71%
Barómetro: 1029 hPa
Clouds: Few Clouds
Visibility: 10 km
Cloud details: Few Clouds 914 m
2021/04/12 07:30 LESO 120730Z 09003KT 050V140 9999 FEW030 09/04 Q1029
 
LEVD - Valladolid(Mil/C, Spain
Distance from station: ONO 239km
Actualización: Mon, 12-Apr-2021 9:30am CEST
Despejado
Despejado
 Viento del ENE
Viento: ENE 26 km/h
Temperatura: 2°C
Sensación frio: -3°C
Rocío: -1°C
Humedad: 81%
Barómetro: 1025 hPa
Resumen: Despejado
Visibility: greater than 10 km
2021/04/12 07:30 LEVD 120730Z 07014KT CAVOK 02/M01 Q1025
LESA - Salamanca (civ/M, Spain
Distance from station: ONO 349km
Actualización: Mon, 12-Apr-2021 9:30am CEST
Despejado
Despejado
 Viento del E
Viento: E 22 km/h
Temperatura: 3°C
Sensación frio: -2°C
Rocío: -2°C
Humedad: 70%
Barómetro: 1025 hPa
Resumen: Despejado
Visibility: greater than 10 km
2021/04/12 07:30 LESA 120730Z 08012KT CAVOK 03/M02 Q1025
 
LEXJ - Santander/Paraya, Spain
Distance from station: NNO 247km
Actualización: Mon, 12-Apr-2021 9:30am CEST
Few Clouds
Few Clouds
 Viento del varies
Viento: varies 4 km/h
Temperatura: 7°C
Rocío: 4°C
Humedad: 81%
Barómetro: 1029 hPa
Clouds: Few Clouds
Visibility: 10 km
Cloud details: Few Clouds 1280 m
2021/04/12 07:30 LEXJ 120730Z VRB02KT 9999 FEW042 07/04 Q1029
LEAS - Asturias/Aviles, Spain
Distance from station: NO 214km
Actualización: Mon, 12-Apr-2021 9:30am CEST
Despejado
Despejado
 Viento del SE
Viento: SE 9 km/h
Temperatura: 8°C
Sensación frio: 6°C
Rocío: 3°C
Humedad: 71%
Barómetro: 1027 hPa
Resumen: Despejado
Visibility: greater than 10 km
2021/04/12 07:30 LEAS 120730Z 13005KT 080V180 CAVOK 08/03 Q1027 NOSIG
 
LECO - La Coruna/Alvedr, Spain
Distance from station: ONO 222km
Actualización: Mon, 12-Apr-2021 9:30am CEST
Despejado
Despejado
 Viento del S
Viento: S 9 km/h
Temperatura: 7°C
Sensación frio: 6°C
Rocío: 1°C
Humedad: 66%
Barómetro: 1024 hPa
Resumen: Despejado
Visibility: greater than 10 km
2021/04/12 07:30 LECO 120730Z 18005KT CAVOK 07/01 Q1024 NOSIG
LEVX - Vigo/Peinador, Spain
Distance from station: O 214km
Actualización: Mon, 12-Apr-2021 9:30am CEST
Despejado
Despejado
 Viento del S
Viento: S 9 km/h
Temperatura: 9°C
Sensación frio: 7°C
Rocío: 2°C
Humedad: 62%
Barómetro: 1021 hPa
Resumen: Despejado
Visibility: greater than 10 km
2021/04/12 07:30 LEVX 120730Z 19005KT 120V250 CAVOK 09/02 Q1021 NOSIG